Time;durP1;ratioP1;P1;durP2;ratioP2;P2;SDS_P1;SDS_P2;PMS_P1;PMS_P2;Temp;Humidity;BMP_temperature;BMP_pressure;BME280_temperature;BME280_humidity;BME280_pressure;Samples;Min_cycle;Max_cycle;Signal;HPM_P1;HPM_P2
2022/08/01 00:01:47;;;;;;;12.27;11.57;;;;;;;;;;5039806;28;20183;-57
2022/08/01 00:04:13;;;;;;;10.75;10.05;;;;;;;;;;5037050;28;20399;-57
2022/08/01 00:06:38;;;;;;;13.15;12.35;;;;;;;;;;5041409;28;20037;-57
2022/08/01 00:09:03;;;;;;;11.32;10.63;;;;;;;;;;5039954;28;20035;-57
2022/08/01 00:11:29;;;;;;;9.50;8.90;;;;;;;;;;5037721;28;20462;-57
2022/08/01 00:13:54;;;;;;;10.27;9.68;;;;;;;;;;5040042;28;20390;-55
2022/08/01 00:16:22;;;;;;;9.32;8.73;;;;;;;;;;5039887;28;20029;-57
2022/08/01 00:18:48;;;;;;;12.40;11.70;;;;;;;;;;5036613;28;20600;-57
2022/08/01 00:21:13;;;;;;;11.65;10.95;;;;;;;;;;5039336;28;20017;-57
2022/08/01 00:23:39;;;;;;;9.38;8.77;;;;;;;;;;5043923;28;20450;-57
2022/08/01 00:26:04;;;;;;;11.30;10.60;;;;;;;;;;5038774;28;20045;-57
2022/08/01 00:28:29;;;;;;;11.00;10.30;;;;;;;;;;5037870;28;20025;-56
2022/08/01 00:30:55;;;;;;;10.43;9.82;;;;;;;;;;5042601;28;20029;-57
2022/08/01 00:33:20;;;;;;;9.95;9.35;;;;;;;;;;5036078;28;20028;-59
2022/08/01 00:35:45;;;;;;;10.55;9.95;;;;;;;;;;5037537;28;20343;-59
2022/08/01 00:38:11;;;;;;;7.90;7.40;;;;;;;;;;5040205;28;20021;-58
2022/08/01 00:40:36;;;;;;;7.45;6.95;;;;;;;;;;5044280;28;20477;-59
2022/08/01 00:43:02;;;;;;;8.23;7.63;;;;;;;;;;5038633;28;20493;-59
2022/08/01 00:45:27;;;;;;;7.60;7.10;;;;;;;;;;5035975;28;20044;-59
2022/08/01 00:47:53;;;;;;;7.93;7.43;;;;;;;;;;5037391;28;20171;-59
2022/08/01 00:50:18;;;;;;;10.05;9.35;;;;;;;;;;5037452;28;20029;-59
2022/08/01 00:52:44;;;;;;;8.45;7.93;;;;;;;;;;5036672;28;20631;-58
2022/08/01 00:55:12;;;;;;;7.93;7.43;;;;;;;;;;5035306;28;20413;-58
2022/08/01 00:57:37;;;;;;;8.40;7.90;;;;;;;;;;5035247;28;20112;-59
2022/08/01 01:00:04;;;;;;;8.00;7.50;;;;;;;;;;5035550;28;20107;-59
2022/08/01 01:02:29;;;;;;;11.80;10.52;;;;;;;;;;5036475;28;20024;-59
2022/08/01 01:04:55;;;;;;;10.35;9.75;;;;;;;;;;5037888;28;20040;-59
2022/08/01 01:07:56;;;;;;;10.45;9.85;;;;;;;;;;5037072;28;20021;-59
2022/08/01 01:10:39;;;;;;;15.45;14.55;;;;;;;;;;5037980;28;20359;-58
2022/08/01 01:13:09;;;;;;;11.90;11.20;;;;;;;;;;5029657;28;20120;-58
2022/08/01 01:15:51;;;;;;;12.40;11.70;;;;;;;;;;5035282;28;20094;-59
2022/08/01 01:18:22;;;;;;;12.85;12.05;;;;;;;;;;5049567;28;20025;-58
2022/08/01 01:21:00;;;;;;;14.63;13.80;;;;;;;;;;5033937;28;20044;-59
2022/08/01 01:23:50;;;;;;;18.77;17.70;;;;;;;;;;5038518;28;20034;-59
2022/08/01 01:26:38;;;;;;;13.10;12.30;;;;;;;;;;5035806;28;20051;-59
2022/08/01 01:29:39;;;;;;;14.77;13.93;;;;;;;;;;5038736;28;20490;-58
2022/08/01 01:32:06;;;;;;;16.02;15.13;;;;;;;;;;5017598;28;20235;-58
2022/08/01 01:34:36;;;;;;;17.55;16.58;;;;;;;;;;5035419;28;20065;-58
2022/08/01 01:37:06;;;;;;;16.65;15.75;;;;;;;;;;5037418;28;20134;-58
2022/08/01 01:39:33;;;;;;;16.30;15.40;;;;;;;;;;5042143;28;20037;-59
2022/08/01 01:42:00;;;;;;;17.15;16.23;;;;;;;;;;5041569;28;20083;-58
2022/08/01 01:44:27;;;;;;;17.42;16.42;;;;;;;;;;5043262;28;20133;-59
2022/08/01 01:46:53;;;;;;;19.83;18.73;;;;;;;;;;5038934;28;20037;-58
2022/08/01 01:49:25;;;;;;;14.80;14.00;;;;;;;;;;5039637;28;20035;-58
2022/08/01 01:51:53;;;;;;;18.33;17.33;;;;;;;;;;5043830;28;20040;-58
2022/08/01 01:54:19;;;;;;;19.33;18.27;;;;;;;;;;5042210;28;20037;-58
2022/08/01 01:56:48;;;;;;;20.90;19.75;;;;;;;;;;5037874;28;20029;-58
2022/08/01 01:59:20;;;;;;;20.92;19.83;;;;;;;;;;5041707;28;20032;-58
2022/08/01 02:01:49;;;;;;;22.05;20.85;;;;;;;;;;5042069;28;20533;-58
2022/08/01 02:04:16;;;;;;;24.55;23.25;;;;;;;;;;5040370;28;20022;-58
2022/08/01 02:06:43;;;;;;;23.15;21.92;;;;;;;;;;5037087;28;20262;-58
2022/08/01 02:09:09;;;;;;;25.42;24.02;;;;;;;;;;5039363;28;20045;-58
2022/08/01 02:11:36;;;;;;;24.90;23.60;;;;;;;;;;5041132;28;20037;-59
2022/08/01 02:14:03;;;;;;;34.67;32.88;;;;;;;;;;5039583;28;20407;-58
2022/08/01 02:16:34;;;;;;;31.98;30.33;;;;;;;;;;5040765;28;20039;-58
2022/08/01 02:19:00;;;;;;;36.40;34.50;;;;;;;;;;5039253;28;20095;-58
2022/08/01 02:21:31;;;;;;;40.05;38.00;;;;;;;;;;5037115;28;20024;-58
2022/08/01 02:24:14;;;;;;;51.65;49.05;;;;;;;;;;5040716;28;20044;-58
2022/08/01 02:26:45;;;;;;;58.17;55.22;;;;;;;;;;5040448;28;20030;-58
2022/08/01 02:29:14;;;;;;;54.40;51.63;;;;;;;;;;5038484;28;20020;-58
2022/08/01 02:31:44;;;;;;;62.77;59.63;;;;;;;;;;5041053;28;20041;-58
2022/08/01 02:34:15;;;;;;;68.28;64.78;;;;;;;;;;5040448;28;20068;-58
2022/08/01 02:36:44;;;;;;;70.47;66.97;;;;;;;;;;5046071;28;20028;-58
2022/08/01 02:39:12;;;;;;;70.35;66.82;;;;;;;;;;5045283;28;20035;-58
2022/08/01 02:41:44;;;;;;;68.07;64.68;;;;;;;;;;5044320;28;20077;-58
2022/08/01 02:44:21;;;;;;;73.03;69.40;;;;;;;;;;5039182;28;20100;-58
2022/08/01 02:46:54;;;;;;;77.68;73.82;;;;;;;;;;5042978;28;20321;-58
2022/08/01 02:49:20;;;;;;;94.53;89.88;;;;;;;;;;5045078;28;20024;-58
2022/08/01 02:51:48;;;;;;;69.65;66.18;;;;;;;;;;5038973;28;20050;-58
2022/08/01 02:54:16;;;;;;;90.70;86.25;;;;;;;;;;5035762;28;20344;-58
2022/08/01 02:56:43;;;;;;;88.43;84.07;;;;;;;;;;5041191;28;20116;-58
2022/08/01 02:59:12;;;;;;;99.25;94.40;;;;;;;;;;5042876;28;20436;-58
2022/08/01 03:01:39;;;;;;;86.05;81.82;;;;;;;;;;5045035;28;20547;-58
2022/08/01 03:04:05;;;;;;;105.68;100.50;;;;;;;;;;5040388;28;20336;-58
2022/08/01 03:06:32;;;;;;;109.82;104.43;;;;;;;;;;5043998;28;20036;-58
2022/08/01 03:09:00;;;;;;;99.82;94.93;;;;;;;;;;5037837;28;20597;-58
2022/08/01 03:11:27;;;;;;;110.53;105.15;;;;;;;;;;5039618;28;20420;-58
2022/08/01 03:13:54;;;;;;;118.25;112.43;;;;;;;;;;5041739;28;20033;-57
2022/08/01 03:16:24;;;;;;;121.70;115.70;;;;;;;;;;5042355;28;20017;-58
2022/08/01 03:18:52;;;;;;;118.85;113.03;;;;;;;;;;5039596;28;20040;-58
2022/08/01 03:21:21;;;;;;;125.95;119.85;;;;;;;;;;5039280;28;20375;-58
2022/08/01 03:23:48;;;;;;;118.22;112.47;;;;;;;;;;5040013;28;20102;-58
2022/08/01 03:26:14;;;;;;;123.82;117.78;;;;;;;;;;5037662;28;20064;-58
2022/08/01 03:28:41;;;;;;;123.43;117.43;;;;;;;;;;5037784;28;20068;-58
2022/08/01 03:31:07;;;;;;;121.15;115.22;;;;;;;;;;5039194;28;20403;-58
2022/08/01 03:33:33;;;;;;;118.13;112.35;;;;;;;;;;5038527;28;20706;-58
2022/08/01 03:36:00;;;;;;;133.13;126.65;;;;;;;;;;5044168;28;20037;-58
2022/08/01 03:38:30;;;;;;;130.05;123.72;;;;;;;;;;5036020;28;20399;-58
2022/08/01 03:41:02;;;;;;;113.75;108.20;;;;;;;;;;5040582;28;20028;-58
2022/08/01 03:43:51;;;;;;;114.72;109.13;;;;;;;;;;5043240;28;20047;-58
2022/08/01 03:46:25;;;;;;;94.88;90.25;;;;;;;;;;5040059;28;20033;-58
2022/08/01 03:48:55;;;;;;;101.15;96.22;;;;;;;;;;5039210;28;20033;-58
2022/08/01 03:51:22;;;;;;;102.83;97.80;;;;;;;;;;5041660;28;20033;-58
2022/08/01 03:53:49;;;;;;;90.78;86.30;;;;;;;;;;5037114;28;20280;-58
2022/08/01 03:56:19;;;;;;;82.55;78.47;;;;;;;;;;5033282;28;20033;-58
2022/08/01 03:58:45;;;;;;;73.72;70.10;;;;;;;;;;5037415;28;20478;-58
2022/08/01 04:01:11;;;;;;;84.30;80.20;;;;;;;;;;5042166;28;20269;-58
2022/08/01 04:03:37;;;;;;;75.63;71.90;;;;;;;;;;5038051;28;20650;-58
2022/08/01 04:06:08;;;;;;;81.53;77.53;;;;;;;;;;5042337;28;20356;-58
2022/08/01 04:08:38;;;;;;;77.78;73.95;;;;;;;;;;5038770;28;20145;-58
2022/08/01 04:11:03;;;;;;;66.60;63.30;;;;;;;;;;5040080;28;20033;-58
2022/08/01 04:13:30;;;;;;;64.85;61.63;;;;;;;;;;5039789;28;20029;-58
2022/08/01 04:15:55;;;;;;;72.10;68.50;;;;;;;;;;5043181;28;20055;-58
2022/08/01 04:18:21;;;;;;;63.25;60.08;;;;;;;;;;5035669;28;20033;-58
2022/08/01 04:20:46;;;;;;;58.40;55.45;;;;;;;;;;5041252;28;20041;-58
2022/08/01 04:23:15;;;;;;;64.00;60.83;;;;;;;;;;5039501;28;20336;-58
2022/08/01 04:25:42;;;;;;;60.88;57.85;;;;;;;;;;5038065;28;20688;-58
2022/08/01 04:28:15;;;;;;;56.72;53.90;;;;;;;;;;5038513;28;20108;-58
2022/08/01 04:30:44;;;;;;;58.42;55.53;;;;;;;;;;5038084;28;20033;-58
2022/08/01 04:33:15;;;;;;;51.00;48.45;;;;;;;;;;5039833;28;20040;-58
2022/08/01 04:35:44;;;;;;;44.55;42.30;;;;;;;;;;5040809;28;20094;-57
2022/08/01 04:38:12;;;;;;;44.97;42.72;;;;;;;;;;5044575;28;20155;-58
2022/08/01 04:40:40;;;;;;;44.35;42.10;;;;;;;;;;5042854;28;20026;-58
2022/08/01 04:43:06;;;;;;;45.85;43.47;;;;;;;;;;5038255;28;20362;-58
2022/08/01 04:45:33;;;;;;;45.45;43.00;;;;;;;;;;5039370;28;20604;-58
2022/08/01 04:47:59;;;;;;;41.50;39.40;;;;;;;;;;5038973;28;20095;-58
2022/08/01 04:50:25;;;;;;;40.20;38.13;;;;;;;;;;5042500;28;20043;-57
2022/08/01 04:52:51;;;;;;;39.42;37.40;;;;;;;;;;5044894;28;20056;-58
2022/08/01 04:55:17;;;;;;;22.55;21.33;;;;;;;;;;5043184;28;20055;-57
2022/08/01 04:57:44;;;;;;;23.38;22.13;;;;;;;;;;5038073;28;20417;-57
2022/08/01 05:00:10;;;;;;;28.85;27.33;;;;;;;;;;5038927;28;20035;-57
2022/08/01 05:02:36;;;;;;;33.17;31.48;;;;;;;;;;5042709;28;20064;-57
2022/08/01 05:05:02;;;;;;;36.72;34.85;;;;;;;;;;5037257;28;20048;-58
2022/08/01 05:07:27;;;;;;;35.08;33.28;;;;;;;;;;5041671;28;20033;-57
2022/08/01 05:09:53;;;;;;;30.73;29.13;;;;;;;;;;5043738;28;20466;-57
2022/08/01 05:12:18;;;;;;;32.38;30.70;;;;;;;;;;5037313;28;20574;-57
2022/08/01 05:14:44;;;;;;;35.83;33.97;;;;;;;;;;5039135;28;20047;-57
2022/08/01 05:17:10;;;;;;;37.97;36.03;;;;;;;;;;5043938;28;20028;-57
2022/08/01 05:19:37;;;;;;;41.38;39.22;;;;;;;;;;5043169;28;20041;-57
2022/08/01 05:22:07;;;;;;;34.28;32.47;;;;;;;;;;5038368;28;20037;-57
2022/08/01 05:24:38;;;;;;;37.83;35.88;;;;;;;;;;5035283;28;20123;-57
2022/08/01 05:27:04;;;;;;;25.85;24.50;;;;;;;;;;5037244;28;20028;-57
2022/08/01 05:29:30;;;;;;;25.17;23.73;;;;;;;;;;5038451;28;20032;-57
2022/08/01 05:31:56;;;;;;;27.05;25.63;;;;;;;;;;5033792;28;20588;-57
2022/08/01 05:34:21;;;;;;;25.20;23.88;;;;;;;;;;5032492;28;20049;-58
2022/08/01 05:36:47;;;;;;;33.13;31.42;;;;;;;;;;5036917;28;20048;-57
2022/08/01 05:39:13;;;;;;;29.70;28.15;;;;;;;;;;5036306;28;20049;-57
2022/08/01 05:41:39;;;;;;;26.98;25.55;;;;;;;;;;5033015;28;20036;-57
2022/08/01 05:44:05;;;;;;;31.55;29.90;;;;;;;;;;5042382;28;20497;-58
2022/08/01 05:46:31;;;;;;;32.33;30.63;;;;;;;;;;5038630;28;20029;-58
2022/08/01 05:48:58;;;;;;;33.45;31.75;;;;;;;;;;5034722;28;20025;-57
2022/08/01 05:51:24;;;;;;;34.85;33.05;;;;;;;;;;5058899;28;20036;-57
2022/08/01 05:53:49;;;;;;;36.80;34.90;;;;;;;;;;5043742;28;20037;-56
2022/08/01 05:56:14;;;;;;;33.55;31.80;;;;;;;;;;5037687;28;20045;-58
2022/08/01 05:58:40;;;;;;;33.00;31.30;;;;;;;;;;5041827;28;20091;-57
2022/08/01 06:01:05;;;;;;;43.10;40.67;;;;;;;;;;5037104;28;20124;-57
2022/08/01 06:03:32;;;;;;;45.80;43.35;;;;;;;;;;5037815;28;20044;-57
2022/08/01 06:05:59;;;;;;;52.20;49.58;;;;;;;;;;5036038;28;20057;-57
2022/08/01 06:08:24;;;;;;;46.17;43.85;;;;;;;;;;5038617;28;20064;-57
2022/08/01 06:10:49;;;;;;;55.78;53.00;;;;;;;;;;5039805;28;20049;-57
2022/08/01 06:13:15;;;;;;;52.15;49.53;;;;;;;;;;5037789;28;20090;-57
2022/08/01 06:15:40;;;;;;;58.28;55.38;;;;;;;;;;5036548;28;20043;-57
2022/08/01 06:18:05;;;;;;;60.65;57.63;;;;;;;;;;5042027;28;20087;-57
2022/08/01 06:20:31;;;;;;;61.17;58.13;;;;;;;;;;5039503;28;20593;-56
2022/08/01 06:22:56;;;;;;;68.38;65.03;;;;;;;;;;5040108;28;20450;-57
2022/08/01 06:25:22;;;;;;;65.53;62.28;;;;;;;;;;5041686;28;20069;-57
2022/08/01 06:27:48;;;;;;;54.47;51.72;;;;;;;;;;5046204;28;20032;-58
2022/08/01 06:30:13;;;;;;;65.38;62.13;;;;;;;;;;5038220;28;20125;-55
2022/08/01 06:32:38;;;;;;;62.08;58.97;;;;;;;;;;5041122;28;20025;-57
2022/08/01 06:35:04;;;;;;;49.65;47.17;;;;;;;;;;5038871;28;20410;-55
2022/08/01 06:37:31;;;;;;;54.45;51.75;;;;;;;;;;5039981;28;20463;-57
2022/08/01 06:40:07;;;;;;;43.08;40.88;;;;;;;;;;5037567;28;20509;-56
2022/08/01 06:42:35;;;;;;;65.00;61.78;;;;;;;;;;5034506;28;20041;-57
2022/08/01 06:45:11;;;;;;;65.03;61.80;;;;;;;;;;5039283;28;20029;-57
2022/08/01 06:47:38;;;;;;;63.53;60.38;;;;;;;;;;5036576;28;20477;-57
2022/08/01 06:50:05;;;;;;;74.05;70.38;;;;;;;;;;5034994;28;20694;-55
2022/08/01 06:52:31;;;;;;;59.92;56.95;;;;;;;;;;5042061;28;20044;-56
2022/08/01 06:54:56;;;;;;;63.90;60.70;;;;;;;;;;5039373;28;20025;-57
2022/08/01 06:57:21;;;;;;;51.22;48.63;;;;;;;;;;5044072;28;20079;-57
2022/08/01 06:59:47;;;;;;;58.50;55.53;;;;;;;;;;5043304;28;20041;-55
2022/08/01 07:02:12;;;;;;;71.90;68.32;;;;;;;;;;5041260;28;20537;-57
2022/08/01 07:04:38;;;;;;;68.05;64.63;;;;;;;;;;5037748;28;20045;-57
2022/08/01 07:07:03;;;;;;;53.08;50.40;;;;;;;;;;5038909;28;20471;-57
2022/08/01 07:09:28;;;;;;;35.05;33.28;;;;;;;;;;5036590;28;20040;-57
2022/08/01 07:11:54;;;;;;;29.05;27.48;;;;;;;;;;5036323;28;20033;-57
2022/08/01 07:14:23;;;;;;;22.88;21.67;;;;;;;;;;5037356;28;20448;-57
2022/08/01 07:16:49;;;;;;;17.73;16.70;;;;;;;;;;5043521;28;20036;-57
2022/08/01 07:19:14;;;;;;;14.68;13.73;;;;;;;;;;5039262;28;20527;-58
2022/08/01 07:21:40;;;;;;;10.02;9.43;;;;;;;;;;5039721;28;20374;-58
2022/08/01 07:24:12;;;;;;;11.40;10.70;;;;;;;;;;5039653;28;20036;-57
2022/08/01 07:26:38;;;;;;;13.77;12.98;;;;;;;;;;5045567;28;20029;-56
2022/08/01 07:29:03;;;;;;;10.20;9.50;;;;;;;;;;5042143;28;20083;-57
2022/08/01 07:31:29;;;;;;;9.10;8.48;;;;;;;;;;5043817;28;20410;-57
2022/08/01 07:33:54;;;;;;;9.43;8.82;;;;;;;;;;5040718;28;20702;-57
2022/08/01 07:36:19;;;;;;;8.90;8.30;;;;;;;;;;5042188;28;20688;-57
2022/08/01 07:38:45;;;;;;;9.50;8.90;;;;;;;;;;5042648;28;20032;-56
2022/08/01 07:41:11;;;;;;;10.68;9.98;;;;;;;;;;5038760;28;20017;-57
2022/08/01 07:43:36;;;;;;;11.93;11.23;;;;;;;;;;5038679;28;20444;-57
2022/08/01 07:46:02;;;;;;;16.95;16.02;;;;;;;;;;5038538;28;20029;-56
2022/08/01 07:48:28;;;;;;;10.68;9.88;;;;;;;;;;5041969;28;20044;-57
2022/08/01 07:50:54;;;;;;;10.20;9.60;;;;;;;;;;5039850;28;20037;-57
2022/08/01 07:53:19;;;;;;;10.70;10.07;;;;;;;;;;5042367;28;20029;-56
2022/08/01 07:55:44;;;;;;;12.52;11.82;;;;;;;;;;5041158;28;20430;-57
2022/08/01 07:58:10;;;;;;;10.02;9.43;;;;;;;;;;5037128;28;20044;-57
2022/08/01 08:00:35;;;;;;;17.30;16.33;;;;;;;;;;5039627;28;20033;-57
2022/08/01 08:03:00;;;;;;;15.95;15.02;;;;;;;;;;5040886;28;20239;-57
2022/08/01 08:05:27;;;;;;;12.77;12.02;;;;;;;;;;5040214;28;20098;-57
2022/08/01 08:07:52;;;;;;;24.25;22.95;;;;;;;;;;5038605;28;20489;-57
2022/08/01 08:10:18;;;;;;;21.60;20.40;;;;;;;;;;5038968;28;20048;-57
2022/08/01 08:12:43;;;;;;;19.95;18.85;;;;;;;;;;5037041;28;20029;-55
2022/08/01 08:15:09;;;;;;;23.48;22.23;;;;;;;;;;5039453;28;20108;-57
2022/08/01 08:17:35;;;;;;;30.15;28.55;;;;;;;;;;5039813;28;20504;-57
2022/08/01 08:20:02;;;;;;;49.33;46.83;;;;;;;;;;5040844;28;20607;-57
2022/08/01 08:22:28;;;;;;;49.88;47.38;;;;;;;;;;5042309;28;20020;-57
2022/08/01 08:24:53;;;;;;;47.90;45.50;;;;;;;;;;5039020;28;20044;-57
2022/08/01 08:27:18;;;;;;;48.92;46.42;;;;;;;;;;5040894;28;20029;-57
2022/08/01 08:29:43;;;;;;;53.65;50.95;;;;;;;;;;5037354;28;20033;-56
2022/08/01 08:32:09;;;;;;;47.35;44.95;;;;;;;;;;5036707;28;20029;-57
2022/08/01 08:34:35;;;;;;;44.30;42.08;;;;;;;;;;5042899;28;20025;-57
2022/08/01 08:37:01;;;;;;;46.42;44.03;;;;;;;;;;5039405;28;20021;-57
2022/08/01 08:39:29;;;;;;;49.40;46.88;;;;;;;;;;5037579;28;20490;-56
2022/08/01 08:41:56;;;;;;;45.83;43.53;;;;;;;;;;5037659;28;20021;-57
2022/08/01 08:44:21;;;;;;;45.95;43.65;;;;;;;;;;5034639;28;20673;-57
2022/08/01 08:46:49;;;;;;;51.72;49.13;;;;;;;;;;5036754;28;20041;-55
2022/08/01 08:49:20;;;;;;;47.30;44.90;;;;;;;;;;5036223;28;20037;-57
2022/08/01 08:51:49;;;;;;;43.42;41.22;;;;;;;;;;5038721;28;20417;-55
2022/08/01 08:54:17;;;;;;;44.13;41.90;;;;;;;;;;5040437;28;20132;-57
2022/08/01 08:56:43;;;;;;;41.47;39.08;;;;;;;;;;5037671;28;20017;-57
2022/08/01 08:59:11;;;;;;;21.58;20.40;;;;;;;;;;5034832;28;20087;-57
2022/08/01 09:01:36;;;;;;;43.35;41.15;;;;;;;;;;5039044;28;20045;-56
2022/08/01 09:04:03;;;;;;;38.42;36.47;;;;;;;;;;5035411;28;20036;-56
2022/08/01 09:06:29;;;;;;;49.38;46.88;;;;;;;;;;5036686;28;20091;-57
2022/08/01 09:08:55;;;;;;;47.10;44.70;;;;;;;;;;5037530;28;20028;-57
2022/08/01 09:11:21;;;;;;;43.13;40.92;;;;;;;;;;5035097;28;20044;-57
2022/08/01 09:14:05;;;;;;;40.05;38.03;;;;;;;;;;5037090;28;20025;-58
2022/08/01 09:16:32;;;;;;;44.35;42.15;;;;;;;;;;5035144;28;20026;-57
2022/08/01 09:19:08;;;;;;;43.65;41.45;;;;;;;;;;5037207;28;20028;-55
2022/08/01 09:21:34;;;;;;;44.28;42.05;;;;;;;;;;5040047;28;20036;-57
2022/08/01 09:24:05;;;;;;;51.40;48.80;;;;;;;;;;5037307;28;20044;-56
2022/08/01 09:26:35;;;;;;;63.53;60.35;;;;;;;;;;5040192;28;20040;-56
2022/08/01 09:29:06;;;;;;;53.33;50.63;;;;;;;;;;5037593;28;20336;-56
2022/08/01 09:31:41;;;;;;;49.55;47.03;;;;;;;;;;5037132;28;20047;-57
2022/08/01 09:34:09;;;;;;;41.78;39.67;;;;;;;;;;5035795;28;20469;-58
2022/08/01 09:37:03;;;;;;;40.35;38.33;;;;;;;;;;5036146;28;20400;-56
2022/08/01 09:39:39;;;;;;;37.42;35.53;;;;;;;;;;5031801;28;20037;-57
2022/08/01 09:42:20;;;;;;;40.53;38.42;;;;;;;;;;5035128;28;20048;-56
2022/08/01 09:44:45;;;;;;;29.33;27.73;;;;;;;;;;5036853;28;20119;-57
2022/08/01 09:47:12;;;;;;;32.75;31.05;;;;;;;;;;5035109;28;20120;-55
2022/08/01 09:49:39;;;;;;;27.23;25.80;;;;;;;;;;5037013;28;20409;-56
2022/08/01 09:52:15;;;;;;;30.77;29.17;;;;;;;;;;5036518;28;20025;-56
2022/08/01 09:54:42;;;;;;;19.95;18.85;;;;;;;;;;5041653;28;20040;-57
2022/08/01 09:57:16;;;;;;;30.02;28.45;;;;;;;;;;5044512;28;20067;-57
2022/08/01 09:59:44;;;;;;;24.27;22.98;;;;;;;;;;5040896;28;20037;-61
2022/08/01 10:02:13;;;;;;;27.38;25.98;;;;;;;;;;5041050;28;20783;-58
2022/08/01 10:04:47;;;;;;;32.38;30.67;;;;;;;;;;5041315;28;20140;-58
2022/08/01 10:07:15;;;;;;;29.92;28.33;;;;;;;;;;5043286;28;20021;-59
2022/08/01 10:09:41;;;;;;;26.88;25.42;;;;;;;;;;5043366;28;20028;-58
2022/08/01 10:12:08;;;;;;;23.95;22.65;;;;;;;;;;5044870;28;20033;-58
2022/08/01 10:14:33;;;;;;;30.40;28.80;;;;;;;;;;5042257;28;20032;-59
2022/08/01 10:17:01;;;;;;;20.73;19.63;;;;;;;;;;5039640;28;20159;-58
2022/08/01 10:19:29;;;;;;;33.60;31.90;;;;;;;;;;5043110;28;20108;-58
2022/08/01 10:21:56;;;;;;;33.28;31.48;;;;;;;;;;5039178;28;20029;-58
2022/08/01 10:24:22;;;;;;;32.67;30.98;;;;;;;;;;5039059;28;20459;-58
2022/08/01 10:26:51;;;;;;;33.08;31.38;;;;;;;;;;5043961;28;20029;-58
2022/08/01 10:29:20;;;;;;;34.92;33.13;;;;;;;;;;5042904;28;20087;-58
2022/08/01 10:31:46;;;;;;;36.60;34.65;;;;;;;;;;5041894;28;20305;-58
2022/08/01 10:34:15;;;;;;;35.10;33.30;;;;;;;;;;5040631;28;20037;-58
2022/08/01 10:36:42;;;;;;;35.45;33.63;;;;;;;;;;5040826;28;20158;-57
2022/08/01 10:39:10;;;;;;;39.03;37.03;;;;;;;;;;5035472;28;20021;-58
2022/08/01 10:41:36;;;;;;;39.05;37.05;;;;;;;;;;5041459;28;20068;-57
2022/08/01 10:44:02;;;;;;;59.70;56.70;;;;;;;;;;5039907;28;20684;-58
2022/08/01 10:46:30;;;;;;;72.38;68.75;;;;;;;;;;5042005;28;20039;-58
2022/08/01 10:49:01;;;;;;;69.47;66.03;;;;;;;;;;5037981;28;20025;-57
2022/08/01 10:51:27;;;;;;;48.70;46.22;;;;;;;;;;5039287;28;20286;-58
2022/08/01 10:53:53;;;;;;;42.97;40.78;;;;;;;;;;5039698;28;20029;-58
2022/08/01 10:56:21;;;;;;;45.28;42.97;;;;;;;;;;5037859;28;20040;-56
2022/08/01 10:58:48;;;;;;;66.80;63.45;;;;;;;;;;5042117;28;20041;-56
2022/08/01 11:01:14;;;;;;;88.95;84.57;;;;;;;;;;5039483;28;20113;-56
2022/08/01 11:03:41;;;;;;;95.25;90.57;;;;;;;;;;5036940;28;20025;-56
2022/08/01 11:06:15;;;;;;;94.35;89.75;;;;;;;;;;5039507;28;20030;-57
2022/08/01 11:08:42;;;;;;;88.00;83.70;;;;;;;;;;5039878;28;20518;-58
2022/08/01 11:11:08;;;;;;;89.90;85.45;;;;;;;;;;5040100;28;20490;-57
2022/08/01 11:13:58;;;;;;;97.80;93.00;;;;;;;;;;5038027;28;20063;-59
2022/08/01 11:16:31;;;;;;;85.60;81.35;;;;;;;;;;5036811;28;20119;-57
2022/08/01 11:18:57;;;;;;;80.18;76.20;;;;;;;;;;5039286;28;20141;-58
2022/08/01 11:21:52;;;;;;;84.32;80.13;;;;;;;;;;5040531;28;20033;-58
2022/08/01 11:24:48;;;;;;;89.43;84.88;;;;;;;;;;5042134;28;20052;-57
2022/08/01 11:27:30;;;;;;;95.82;91.15;;;;;;;;;;5035383;28;20117;-57
2022/08/01 11:30:11;;;;;;;94.40;89.75;;;;;;;;;;5041680;28;20052;-55
2022/08/01 11:32:46;;;;;;;104.30;99.20;;;;;;;;;;5037283;28;20040;-56
2022/08/01 11:35:12;;;;;;;111.38;105.93;;;;;;;;;;5038378;28;20039;-57
2022/08/01 11:37:38;;;;;;;118.32;112.47;;;;;;;;;;5044238;28;20115;-57
2022/08/01 11:40:15;;;;;;;114.93;109.22;;;;;;;;;;5046787;28;20635;-57
2022/08/01 11:42:41;;;;;;;116.18;110.47;;;;;;;;;;5052136;28;20084;-57
2022/08/01 11:45:09;;;;;;;111.82;106.35;;;;;;;;;;5048307;28;20032;-58
2022/08/01 11:47:47;;;;;;;107.80;102.50;;;;;;;;;;5050265;28;20438;-57
2022/08/01 11:50:28;;;;;;;104.18;99.07;;;;;;;;;;5050675;28;20362;-58
2022/08/01 11:53:00;;;;;;;98.68;93.82;;;;;;;;;;5046013;28;20026;-58
2022/08/01 11:55:27;;;;;;;110.65;105.18;;;;;;;;;;5051382;28;20071;-58
2022/08/01 11:58:01;;;;;;;147.52;140.23;;;;;;;;;;5039633;28;20029;-58
2022/08/01 12:00:27;;;;;;;154.95;147.35;;;;;;;;;;5039287;28;20033;-58
2022/08/01 12:02:58;;;;;;;200.80;191.07;;;;;;;;;;5043244;28;20037;-58
2022/08/01 12:05:23;;;;;;;186.40;177.23;;;;;;;;;;5046548;28;20100;-58
2022/08/01 12:07:53;;;;;;;203.55;193.63;;;;;;;;;;5046588;28;20700;-58
2022/08/01 12:10:20;;;;;;;211.88;201.52;;;;;;;;;;5047051;28;20694;-57
2022/08/01 12:12:54;;;;;;;225.25;214.27;;;;;;;;;;5034361;28;20048;-56
2022/08/01 12:15:21;;;;;;;202.77;192.88;;;;;;;;;;5049586;28;20089;-57
2022/08/01 12:17:49;;;;;;;212.43;202.07;;;;;;;;;;5047484;28;20120;-58
2022/08/01 12:20:20;;;;;;;189.32;180.00;;;;;;;;;;5046435;28;20052;-58
2022/08/01 12:22:45;;;;;;;191.20;181.80;;;;;;;;;;5043238;28;20178;-57
2022/08/01 12:25:16;;;;;;;171.98;163.48;;;;;;;;;;5045923;28;20115;-57
2022/08/01 12:27:44;;;;;;;168.98;160.60;;;;;;;;;;5044022;28;20047;-57
2022/08/01 12:30:11;;;;;;;153.90;146.35;;;;;;;;;;5039669;28;20029;-58
2022/08/01 12:32:39;;;;;;;151.07;143.60;;;;;;;;;;5043442;28;20412;-58
2022/08/01 12:35:16;;;;;;;114.47;108.85;;;;;;;;;;5042869;28;20037;-58
2022/08/01 12:37:47;;;;;;;119.80;113.93;;;;;;;;;;5040617;28;20037;-57
2022/08/01 12:40:19;;;;;;;158.80;150.98;;;;;;;;;;5044214;28;20033;-57
2022/08/01 12:42:47;;;;;;;140.65;133.73;;;;;;;;;;5044245;28;20024;-58
2022/08/01 12:45:15;;;;;;;164.18;156.13;;;;;;;;;;5044145;28;20364;-58
2022/08/01 12:47:42;;;;;;;181.50;172.63;;;;;;;;;;5038603;28;20041;-57
2022/08/01 12:50:12;;;;;;;181.90;172.95;;;;;;;;;;5044347;28;20035;-57
2022/08/01 12:52:37;;;;;;;;;;;;;;;;;;5044456;28;20079;-57
2022/08/01 12:55:20;;;;;;;152.10;144.57;;;;;;;;;;5046430;28;19921;-57
2022/08/01 12:57:50;;;;;;;154.55;146.93;;;;;;;;;;5043954;28;20128;-63
2022/08/01 13:00:22;;;;;;;140.15;133.25;;;;;;;;;;5045287;28;20390;-62
2022/08/01 13:02:49;;;;;;;142.05;135.05;;;;;;;;;;5041320;28;20367;-63
2022/08/01 13:05:16;;;;;;;161.85;153.90;;;;;;;;;;5040870;28;20052;-63
2022/08/01 13:07:42;;;;;;;142.02;135.02;;;;;;;;;;5045555;28;20491;-63
2022/08/01 13:10:09;;;;;;;138.65;131.85;;;;;;;;;;5046081;28;20028;-63
2022/08/01 13:12:35;;;;;;;154.07;146.48;;;;;;;;;;5048207;28;20029;-63
2022/08/01 13:15:21;;;;;;;136.38;129.65;;;;;;;;;;5043037;28;20093;-64
2022/08/01 13:17:47;;;;;;;140.57;133.65;;;;;;;;;;5037723;28;20056;-62
2022/08/01 13:20:25;;;;;;;128.63;122.30;;;;;;;;;;5044830;28;20063;-62
2022/08/01 13:22:51;;;;;;;119.90;114.00;;;;;;;;;;5046478;28;20115;-62
2022/08/01 13:25:18;;;;;;;129.85;123.45;;;;;;;;;;5043026;28;20473;-63
2022/08/01 13:27:43;;;;;;;112.55;107.05;;;;;;;;;;5040978;28;20534;-63
2022/08/01 13:30:14;;;;;;;110.72;105.32;;;;;;;;;;5043169;28;20112;-63
2022/08/01 13:32:40;;;;;;;119.35;113.50;;;;;;;;;;5040807;28;20112;-63
2022/08/01 13:35:12;;;;;;;102.32;97.32;;;;;;;;;;5038029;28;20302;-63
2022/08/01 13:37:38;;;;;;;116.78;111.07;;;;;;;;;;5038653;28;20040;-64
2022/08/01 13:40:04;;;;;;;121.63;115.63;;;;;;;;;;5039527;28;20060;-64
2022/08/01 13:42:29;;;;;;;115.25;109.63;;;;;;;;;;5045530;28;20025;-64
2022/08/01 13:44:55;;;;;;;98.30;93.47;;;;;;;;;;5044290;28;20548;-64
2022/08/01 13:47:20;;;;;;;100.90;95.95;;;;;;;;;;5040248;28;20041;-64
2022/08/01 13:49:46;;;;;;;120.15;114.25;;;;;;;;;;5043288;28;20029;-62
2022/08/01 13:52:11;;;;;;;130.40;124.00;;;;;;;;;;5039495;28;20439;-62
2022/08/01 13:54:37;;;;;;;156.05;148.25;;;;;;;;;;5042978;28;20030;-62
2022/08/01 13:57:02;;;;;;;130.60;124.20;;;;;;;;;;5038478;28;20052;-61
2022/08/01 13:59:28;;;;;;;164.00;155.90;;;;;;;;;;5041580;28;20036;-63
2022/08/01 14:01:53;;;;;;;166.43;158.27;;;;;;;;;;5038993;28;20021;-63
2022/08/01 14:04:20;;;;;;;166.13;157.93;;;;;;;;;;5043867;28;20217;-62
2022/08/01 14:06:46;;;;;;;184.02;175.05;;;;;;;;;;5041303;28;20048;-64
2022/08/01 14:09:11;;;;;;;194.75;185.20;;;;;;;;;;5043156;28;20028;-63
2022/08/01 14:11:37;;;;;;;197.73;188.05;;;;;;;;;;5041880;28;20933;-64
2022/08/01 14:14:03;;;;;;;206.65;196.60;;;;;;;;;;5040921;28;20531;-63
2022/08/01 14:16:28;;;;;;;200.30;190.52;;;;;;;;;;5043345;28;20029;-63
2022/08/01 14:18:53;;;;;;;179.48;170.65;;;;;;;;;;5044583;28;20031;-63
2022/08/01 14:21:19;;;;;;;178.13;169.38;;;;;;;;;;5045260;28;20510;-63